Time;durP1;ratioP1;P1;durP2;ratioP2;P2;SDS_P1;SDS_P2;PMS_P1;PMS_P2;Temp;Humidity;BMP_temperature;BMP_pressure;BME280_temperature;BME280_humidity;BME280_pressure;Samples;Min_cycle;Max_cycle;Signal;HPM_P1;HPM_P2
2023/10/17 07:02:18;;;;;;;0.60;0.60;;;10.10;99.90;13.50;101506.00;;;;6164522;22;1587166;-66
2023/10/17 07:05:10;;;;;;;1.70;1.60;;;10.20;99.90;12.90;101495.00;;;;6247499;23;20495;-66
2023/10/17 07:08:19;;;;;;;1.83;1.73;;;10.20;99.90;12.70;101529.00;;;;6221296;23;20594;-65
2023/10/17 07:11:29;;;;;;;0.20;0.20;;;10.20;99.90;13.10;101537.00;;;;6196612;23;20198;-65
2023/10/17 07:14:29;;;;;;;0.83;0.80;;;10.30;99.90;12.40;101527.00;;;;6221669;23;20568;-65
2023/10/17 07:17:39;;;;;;;0.87;0.80;;;10.10;99.90;12.90;101541.00;;;;6184321;23;20572;-65
2023/10/17 07:24:17;;;;;;;1.60;1.00;;;10.40;99.90;12.90;101541.00;;;;6205516;23;20151;-65
2023/10/17 07:27:19;;;;;;;1.47;1.37;;;10.40;99.90;13.40;101535.00;;;;6195856;23;20186;-65
2023/10/17 07:30:27;;;;;;;0.70;0.70;;;10.40;99.90;13.50;101534.00;;;;6213430;23;20216;-65
2023/10/17 07:33:17;;;;;;;0.77;0.77;;;10.50;99.90;13.70;101553.00;;;;6199847;23;20189;-65
2023/10/17 07:36:29;;;;;;;1.60;1.20;;;10.50;99.90;12.80;101548.00;;;;6221122;23;20179;-65
2023/10/17 07:39:37;;;;;;;1.43;1.33;;;10.40;99.90;13.40;101548.00;;;;6012534;23;20164;-64
2023/10/17 07:42:14;;;;;;;0.47;0.47;;;10.40;99.90;13.50;101553.00;;;;6219781;23;20160;-64
2023/10/17 07:44:49;;;;;;;1.10;1.03;;;10.40;99.90;13.70;101526.00;;;;6196464;23;20238;-65
2023/10/17 07:47:41;;;;;;;0.77;0.70;;;10.60;99.90;13.20;101548.00;;;;6222136;23;20219;-64
2023/10/17 07:50:32;;;;;;;0.90;0.87;;;10.60;99.90;13.30;101539.00;;;;6195596;23;20168;-65
2023/10/17 07:53:05;;;;;;;1.03;0.97;;;10.50;99.90;13.50;101556.00;;;;6162278;23;20192;-65
2023/10/17 07:55:37;;;;;;;0.50;0.50;;;10.70;99.90;13.30;101558.00;;;;6246260;23;20146;-65
2023/10/17 07:58:17;;;;;;;1.07;1.00;;;10.70;99.90;14.00;101570.00;;;;6220009;23;20532;-66
2023/10/17 08:00:52;;;;;;;1.57;1.47;;;10.80;99.90;13.40;101555.00;;;;6191619;23;20173;-66
2023/10/17 08:03:27;;;;;;;0.77;0.67;;;10.80;99.90;14.20;101583.00;;;;6190091;23;20197;-66
2023/10/17 08:09:24;;;;;;;1.17;1.10;;;10.60;99.90;13.30;101581.00;;;;6215557;23;20189;-66
2023/10/17 08:15:43;;;;;;;0.83;0.83;;;10.60;99.90;14.20;101538.00;;;;6215109;23;20583;-66
2023/10/17 08:18:22;;;;;;;0.60;0.60;;;11.00;99.90;14.00;101532.00;;;;6190150;23;20172;-66
2023/10/17 08:24:13;;;;;;;2.03;1.87;;;11.30;99.90;13.60;101551.00;;;;6215383;23;20582;-66
2023/10/17 08:27:17;;;;;;;0.93;0.83;;;11.10;99.90;14.20;101548.00;;;;6214905;23;20522;-66
2023/10/17 08:30:13;;;;;;;1.77;1.67;;;11.40;99.90;14.30;101560.00;;;;6214829;23;20499;-66
2023/10/17 08:32:39;;;;;;;0.70;0.70;;;11.50;99.90;15.30;101572.00;;;;6215526;23;20199;-66
2023/10/17 08:35:20;;;;;;;0.27;0.27;;;11.90;99.90;14.90;101577.00;;;;6215463;23;20512;-66
2023/10/17 08:41:15;;;;;;;0.63;0.63;;;12.40;99.90;15.40;101614.00;;;;6214598;23;20298;-66
2023/10/17 08:44:06;;;;;;;1.60;1.43;;;12.70;99.90;15.40;101607.00;;;;6189681;23;20167;-66
2023/10/17 08:46:35;;;;;;;0.50;0.50;;;12.50;99.90;15.30;101614.00;;;;6190188;23;20218;-66
2023/10/17 08:52:28;;;;;;;0.80;0.80;;;12.40;99.90;15.30;101599.00;;;;6215022;23;20483;-66
2023/10/17 08:55:07;;;;;;;0.60;0.60;;;12.40;99.90;14.90;101594.00;;;;6214962;23;20151;-66
2023/10/17 08:57:37;;;;;;;0.20;0.20;;;12.30;99.90;15.90;101567.00;;;;6214977;23;20143;-66
2023/10/17 09:00:23;;;;;;;1.33;1.23;;;12.60;99.90;16.40;101584.00;;;;6218306;23;20164;-66
2023/10/17 09:03:36;;;;;;;0.40;0.40;;;13.20;99.90;16.20;101630.00;;;;6220660;23;20152;-66
2023/10/17 09:11:35;;;;;;;0.23;0.23;;;14.10;99.90;17.40;101645.00;;;;6219562;23;20168;-66
2023/10/17 09:14:17;;;;;;;2.50;2.30;;;14.20;99.90;16.70;101651.00;;;;6215629;23;20154;-64
2023/10/17 09:17:28;;;;;;;2.07;1.80;;;13.90;99.90;16.50;101656.00;;;;6195570;23;20612;-64
2023/10/17 09:20:11;;;;;;;1.70;1.23;;;13.60;99.90;16.70;101653.00;;;;6224076;23;20231;-64
2023/10/17 09:22:52;;;;;;;1.03;1.03;;;13.90;99.90;18.10;101647.00;;;;6245450;23;20220;-65
2023/10/17 09:25:41;;;;;;;2.43;1.13;;;14.30;99.90;17.80;101655.00;;;;6244453;23;20189;-68
2023/10/17 09:28:28;;;;;;;0.77;0.77;;;14.60;99.90;17.60;101671.00;;;;6195641;23;20591;-65
2023/10/17 09:31:08;;;;;;;3.27;0.97;;;14.60;99.90;17.40;101674.00;;;;6246090;23;20475;-67
2023/10/17 09:33:43;;;;;;;0.87;0.37;;;14.70;99.90;18.50;101669.00;;;;6246552;23;20201;-64
2023/10/17 09:36:18;;;;;;;2.37;1.53;;;14.80;99.90;17.90;101666.00;;;;6219494;23;20146;-64
2023/10/17 09:38:49;;;;;;;0.53;0.53;;;14.70;99.90;18.20;101664.00;;;;6192718;23;20165;-64
2023/10/17 09:41:18;;;;;;;0.70;0.70;;;14.90;99.90;18.70;101644.00;;;;6245535;23;20148;-64
2023/10/17 09:43:51;;;;;;;0.93;0.93;;;15.10;99.90;18.20;101665.00;;;;6245998;23;20146;-64
2023/10/17 09:46:25;;;;;;;1.33;1.27;;;14.90;99.90;17.40;101672.00;;;;6192173;23;20224;-64
2023/10/17 09:49:00;;;;;;;2.40;2.20;;;14.60;99.90;17.90;101653.00;;;;6246590;23;20143;-64
2023/10/17 09:51:34;;;;;;;0.43;0.43;;;14.60;99.90;17.90;101649.00;;;;6219561;23;20155;-64
2023/10/17 09:54:04;;;;;;;0.67;0.67;;;14.60;99.90;18.30;101650.00;;;;6219245;23;20146;-64
2023/10/17 09:56:38;;;;;;;1.10;1.03;;;14.80;99.90;17.40;101668.00;;;;6246031;23;20280;-64
2023/10/17 09:59:13;;;;;;;1.07;1.07;;;14.50;99.90;18.10;101654.00;;;;6219298;23;20142;-64
2023/10/17 10:01:49;;;;;;;1.37;1.07;;;14.70;99.90;16.80;101668.00;;;;6214534;23;20234;-64
2023/10/17 10:04:21;;;;;;;1.33;1.23;;;14.50;99.90;17.20;101672.00;;;;6214608;23;20197;-64
2023/10/17 10:06:47;;;;;;;1.40;1.30;;;14.40;99.90;16.90;101666.00;;;;6214337;23;20161;-64
2023/10/17 10:09:24;;;;;;;0.67;0.67;;;14.10;99.90;17.80;101652.00;;;;6215389;23;20158;-64
2023/10/17 10:11:55;;;;;;;1.63;1.50;;;14.40;99.90;18.00;101656.00;;;;6216256;23;20170;-64
2023/10/17 10:14:34;;;;;;;1.37;1.27;;;14.90;99.90;17.40;101652.00;;;;6212638;23;20164;-64
2023/10/17 10:17:04;;;;;;;1.80;1.13;;;14.60;99.90;16.30;101663.00;;;;6214673;23;20144;-64
2023/10/17 10:19:42;;;;;;;1.03;1.03;;;14.20;99.90;17.50;101653.00;;;;6213221;23;20475;-64
2023/10/17 10:33:41;;;;;;;1.73;1.63;;;14.20;99.90;16.60;101600.00;;;;5090491;27;21102;-65
2023/10/17 10:36:08;;;;;;;0.90;0.80;;;14.20;99.90;17.00;101606.00;;;;5050869;28;20256;-65
2023/10/17 10:38:39;;;;;;;1.83;1.20;;;14.40;99.90;18.00;101592.00;;;;5052050;28;20236;-65
2023/10/17 10:41:13;;;;;;;0.87;0.80;;;14.70;99.90;18.20;101596.00;;;;5067758;28;20622;-65
2023/10/17 10:43:43;;;;;;;1.50;1.13;;;14.80;99.90;18.50;101580.00;;;;5068869;28;20184;-65
2023/10/17 10:46:28;;;;;;;1.03;1.03;;;15.20;99.90;18.60;101582.00;;;;5035347;28;20525;-66
2023/10/17 10:49:05;;;;;;;1.23;1.13;;;15.20;99.90;18.20;101583.00;;;;5064876;28;20188;-63
2023/10/17 10:52:00;;;;;;;1.87;1.77;;;15.10;99.90;17.60;101579.00;;;;5051771;28;20598;-66
2023/10/17 10:55:49;;;;;;;0.57;0.53;;;15.00;99.90;17.90;101587.00;;;;5070017;28;20281;-66
2023/10/17 10:59:34;;;;;;;0.53;0.53;;;15.10;99.90;17.90;101582.00;;;;5059041;28;20650;-66
2023/10/17 11:02:30;;;;;;;0.70;0.70;;;14.80;99.90;18.90;101542.00;;;;4961046;28;20193;-66
2023/10/17 11:05:58;;;;;;;0.70;0.70;;;15.50;99.90;18.20;101560.00;;;;4968964;28;20269;-66
2023/10/17 11:09:16;;;;;;;1.03;0.93;;;15.80;99.90;18.30;101536.00;;;;4952673;28;20302;-66
2023/10/17 11:12:25;;;;;;;0.47;0.47;;;15.40;99.90;18.70;101544.00;;;;4952560;28;20194;-66
2023/10/17 11:15:32;;;;;;;0.50;0.50;;;15.20;99.90;18.70;101542.00;;;;5034305;28;20287;-66
2023/10/17 11:18:34;;;;;;;1.00;0.50;;;15.60;99.90;19.30;101533.00;;;;5052029;28;20653;-66
2023/10/17 11:21:43;;;;;;;1.43;0.60;;;15.80;99.90;18.20;101554.00;;;;5048200;28;20287;-66
2023/10/17 11:24:34;;;;;;;0.83;0.50;;;15.20;99.90;18.50;101548.00;;;;5050492;28;20201;-66
2023/10/17 11:27:53;;;;;;;0.77;0.77;;;15.30;99.90;18.40;101557.00;;;;5051552;28;20277;-66
2023/10/17 11:30:20;;;;;;;0.53;0.53;;;15.50;99.90;18.50;101539.00;;;;5046438;28;20642;-67
2023/10/17 11:33:01;;;;;;;0.60;0.60;;;15.60;99.90;18.20;101536.00;;;;5051138;28;20209;-67
2023/10/17 11:36:12;;;;;;;0.33;0.33;;;15.60;99.90;18.50;101533.00;;;;5047557;28;20195;-67
2023/10/17 11:39:18;;;;;;;0.50;0.50;;;15.60;99.90;18.10;101543.00;;;;5062447;28;20196;-67
2023/10/17 11:42:17;;;;;;;0.33;0.33;;;15.10;99.90;18.90;101496.00;;;;5051133;28;20192;-67
2023/10/17 11:45:33;;;;;;;0.33;0.33;;;15.50;99.90;17.50;101545.00;;;;5021392;28;20192;-67
2023/10/17 11:49:14;;;;;;;4.33;1.57;;;15.20;99.90;18.50;101535.00;;;;5022571;28;20181;-67
2023/10/17 11:52:31;;;;;;;8.67;0.90;;;15.10;99.90;18.80;101519.00;;;;5047733;28;20234;-67
2023/10/17 11:55:52;;;;;;;0.83;0.70;;;15.10;99.90;17.50;101543.00;;;;5029322;28;20202;-67
2023/10/17 11:59:35;;;;;;;0.83;0.83;;;15.20;99.90;18.30;101523.00;;;;5028706;28;20204;-67
2023/10/17 12:02:29;;;;;;;0.77;0.60;;;15.10;99.90;18.30;101519.00;;;;5049299;28;20198;-66
2023/10/17 12:05:38;;;;;;;1.07;1.03;;;15.40;99.90;17.70;101513.00;;;;5038638;28;20688;-68
2023/10/17 12:08:23;;;;;;;2.33;0.93;;;15.70;99.90;17.80;101511.00;;;;5018633;28;20216;-64
2023/10/17 12:10:53;;;;;;;6.03;0.50;;;15.40;99.90;18.20;101509.00;;;;5022246;28;20212;-65
2023/10/17 12:13:19;;;;;;;0.80;0.80;;;15.40;99.90;19.60;101481.00;;;;5037231;28;20215;-65
2023/10/17 12:15:56;;;;;;;1.87;1.40;;;15.90;99.90;18.90;101472.00;;;;5054647;28;20182;-65
2023/10/17 12:18:24;;;;;;;0.57;0.57;;;16.10;99.90;17.90;101495.00;;;;5037225;28;20193;-65
2023/10/17 12:20:55;;;;;;;0.37;0.37;;;15.40;99.90;18.30;101482.00;;;;5020070;28;20572;-65
2023/10/17 12:23:21;;;;;;;0.90;0.57;;;15.40;99.90;18.10;101490.00;;;;5018944;28;20205;-65
2023/10/17 12:25:48;;;;;;;0.53;0.50;;;15.30;99.90;18.10;101469.00;;;;5036908;28;20242;-65
2023/10/17 12:28:44;;;;;;;0.60;0.60;;;15.30;99.90;18.40;101438.00;;;;5032704;28;20193;-65
2023/10/17 12:31:16;;;;;;;0.60;0.60;;;15.40;99.90;19.00;101446.00;;;;5018268;28;20238;-65
2023/10/17 12:33:45;;;;;;;1.17;1.13;;;15.60;99.90;19.50;101412.00;;;;5036617;28;20188;-65
2023/10/17 12:36:30;;;;;;;1.30;1.30;;;15.90;99.90;18.70;101461.00;;;;5036919;28;20184;-65
2023/10/17 12:39:08;;;;;;;0.67;0.67;;;15.90;99.90;18.20;101463.00;;;;5060520;28;20625;-65
2023/10/17 12:41:37;;;;;;;0.40;0.40;;;15.70;99.90;19.40;101445.00;;;;5020541;28;20200;-65
2023/10/17 12:44:06;;;;;;;0.63;0.63;;;15.90;99.90;19.50;101451.00;;;;5036577;28;20243;-66
2023/10/17 12:46:37;;;;;;;0.63;0.57;;;16.10;99.90;19.10;101446.00;;;;5036917;28;20189;-66
2023/10/17 12:49:06;;;;;;;1.47;0.60;;;16.00;99.90;18.40;101472.00;;;;5034842;28;20188;-65
2023/10/17 12:51:33;;;;;;;0.30;0.30;;;15.70;99.90;18.50;101454.00;;;;5035523;28;20785;-66
2023/10/17 12:54:07;;;;;;;0.80;0.80;;;15.50;99.90;17.60;101478.00;;;;5035164;28;20666;-65
2023/10/17 12:56:39;;;;;;;0.30;0.30;;;15.30;99.90;19.70;101433.00;;;;5053284;28;20262;-65
2023/10/17 12:59:12;;;;;;;0.47;0.47;;;15.60;99.90;18.90;101439.00;;;;5044006;28;20264;-65
2023/10/17 13:01:44;;;;;;;0.40;0.40;;;15.90;99.90;19.30;101437.00;;;;5036668;28;20208;-66
2023/10/17 13:04:12;;;;;;;0.63;0.40;;;15.70;99.90;19.30;101441.00;;;;5033268;28;20188;-66
2023/10/17 13:06:41;;;;;;;0.67;0.67;;;15.80;99.90;17.60;101479.00;;;;5049869;28;20195;-66
2023/10/17 13:09:33;;;;;;;1.23;0.73;;;15.20;99.90;17.90;101479.00;;;;5054474;28;20539;-65
2023/10/17 13:12:40;;;;;;;2.87;0.90;;;15.00;99.90;18.00;101474.00;;;;5034366;28;20275;-66
2023/10/17 13:15:52;;;;;;;0.33;0.33;;;14.80;99.90;18.10;101472.00;;;;5049252;28;20203;-66
2023/10/17 13:18:48;;;;;;;0.20;0.20;;;15.10;99.90;18.20;101469.00;;;;5047050;28;20184;-65
2023/10/17 13:21:57;;;;;;;0.10;0.10;;;14.80;99.90;18.40;101465.00;;;;5046334;28;20272;-65
2023/10/17 13:25:00;;;;;;;0.47;0.47;;;14.90;99.90;18.30;101452.00;;;;5037883;28;20194;-65
2023/10/17 13:31:55;;;;;;;0.53;0.43;;;15.20;99.90;18.90;101432.00;;;;5031913;28;20200;-66
2023/10/17 13:35:06;;;;;;;0.47;0.43;;;15.40;99.90;17.90;101449.00;;;;5051082;28;20609;-66
2023/10/17 13:38:17;;;;;;;0.87;0.87;;;15.10;99.90;18.60;101412.00;;;;5025586;28;20221;-66
2023/10/17 13:41:33;;;;;;;0.10;0.10;;;15.30;99.90;19.40;101406.00;;;;5008053;28;20549;-66
2023/10/17 13:44:53;;;;;;;2.57;0.77;;;15.30;99.90;18.10;101421.00;;;;5054012;28;20234;-66
2023/10/17 13:47:57;;;;;;;0.53;0.53;;;15.20;99.90;17.80;101405.00;;;;5035248;28;20184;-66
2023/10/17 13:51:06;;;;;;;0.57;0.57;;;14.90;99.90;17.70;101426.00;;;;5022784;28;20199;-66
2023/10/17 13:54:34;;;;;;;0.40;0.40;;;14.70;99.90;18.20;101403.00;;;;5053654;28;20230;-66
2023/10/17 13:57:46;;;;;;;2.47;0.93;;;14.70;99.90;17.30;101429.00;;;;5048664;28;20183;-66
2023/10/17 14:01:02;;;;;;;2.30;1.07;;;14.60;99.90;17.00;101451.00;;;;5046269;28;20630;-66
2023/10/17 14:04:11;;;;;;;1.53;0.80;;;14.30;99.90;17.80;101421.00;;;;5015599;28;20302;-66
2023/10/17 14:07:30;;;;;;;2.37;1.07;;;14.40;99.90;18.10;101416.00;;;;5024920;28;20177;-66
2023/10/17 14:10:52;;;;;;;0.50;0.40;;;14.60;99.90;17.90;101424.00;;;;5035326;28;20190;-66
2023/10/17 14:14:11;;;;;;;0.30;0.30;;;14.70;99.90;18.10;101433.00;;;;5033061;28;20663;-66
2023/10/17 14:17:12;;;;;;;0.30;0.30;;;14.70;99.90;18.50;101403.00;;;;5052428;28;20185;-66
2023/10/17 14:20:38;;;;;;;0.67;0.67;;;14.80;99.90;18.30;101397.00;;;;5028748;28;20269;-66
2023/10/17 14:23:59;;;;;;;0.30;0.30;;;14.80;99.90;18.40;101404.00;;;;5047019;28;20194;-65
2023/10/17 14:27:11;;;;;;;2.33;0.80;;;14.70;99.90;18.10;101400.00;;;;5030461;28;20530;-66
2023/10/17 14:30:13;;;;;;;1.63;0.60;;;14.90;99.90;17.50;101402.00;;;;5045661;28;20183;-66
2023/10/17 14:33:16;;;;;;;0.27;0.27;;;14.50;99.90;18.00;101390.00;;;;5012018;28;20206;-66
2023/10/17 14:36:28;;;;;;;0.70;0.60;;;14.60;99.90;17.70;101386.00;;;;5029828;28;20190;-66
2023/10/17 14:39:23;;;;;;;0.43;0.43;;;14.50;99.90;17.40;101383.00;;;;5037649;28;20190;-65
2023/10/17 14:42:19;;;;;;;0.67;0.40;;;14.50;99.90;17.70;101401.00;;;;5027980;28;20672;-65
2023/10/17 14:45:44;;;;;;;0.80;0.47;;;14.50;99.90;17.60;101395.00;;;;5035891;28;20189;-65
2023/10/17 14:49:02;;;;;;;0.97;0.67;;;14.50;99.90;18.10;101382.00;;;;5034529;28;20308;-65
2023/10/17 14:52:08;;;;;;;1.77;1.67;;;14.50;99.90;17.20;101390.00;;;;5026370;28;20206;-65
2023/10/17 14:55:28;;;;;;;1.70;1.03;;;14.40;99.90;17.30;101376.00;;;;5051233;28;20198;-65
2023/10/17 14:58:15;;;;;;;0.40;0.40;;;14.30;99.90;17.60;101384.00;;;;5034525;28;20213;-65
2023/10/17 15:01:10;;;;;;;0.30;0.30;;;14.30;99.90;17.60;101374.00;;;;5031582;28;20218;-65
2023/10/17 15:04:14;;;;;;;4.57;0.70;;;14.40;99.90;17.80;101371.00;;;;5049650;28;20182;-65
2023/10/17 15:07:47;;;;;;;0.20;0.20;;;14.40;99.90;17.30;101372.00;;;;5048350;28;20192;-65
2023/10/17 15:11:06;;;;;;;0.40;0.40;;;14.30;99.90;17.60;101347.00;;;;5051008;28;20264;-65
2023/10/17 15:14:20;;;;;;;0.73;0.73;;;14.40;99.90;18.50;101343.00;;;;5033746;28;20345;-65
2023/10/17 15:17:27;;;;;;;0.20;0.20;;;14.60;99.90;17.60;101358.00;;;;5036096;28;20643;-65
2023/10/17 15:20:16;;;;;;;0.40;0.40;;;14.50;99.90;17.50;101363.00;;;;5053608;28;20196;-65
2023/10/17 15:23:19;;;;;;;0.40;0.40;;;14.30;99.90;17.70;101363.00;;;;5052467;28;20716;-66
2023/10/17 15:26:11;;;;;;;0.17;0.17;;;14.30;99.90;18.00;101325.00;;;;5038727;28;20194;-68
2023/10/17 15:29:05;;;;;;;0.10;0.10;;;14.40;99.90;17.20;101369.00;;;;5014312;28;20184;-67
2023/10/17 15:31:56;;;;;;;0.20;0.20;;;14.20;99.90;17.70;101359.00;;;;5053179;28;20248;-66
2023/10/17 15:35:24;;;;;;;0.20;0.20;;;14.10;99.90;18.00;101356.00;;;;5037010;28;20183;-65
2023/10/17 15:38:35;;;;;;;0.20;0.20;;;14.30;99.90;17.20;101365.00;;;;5039275;28;20194;-65
2023/10/17 15:41:39;;;;;;;0.10;0.10;;;13.90;99.90;17.30;101379.00;;;;5032998;28;20185;-66
2023/10/17 15:44:46;;;;;;;0.20;0.20;;;14.00;99.90;17.70;101378.00;;;;5015592;28;20190;-66
2023/10/17 15:47:35;;;;;;;0.10;0.10;;;14.00;99.90;17.20;101381.00;;;;5034597;28;20190;-65
2023/10/17 15:50:31;;;;;;;0.20;0.20;;;13.80;99.90;17.70;101359.00;;;;5035353;28;20201;-65
2023/10/17 15:53:35;;;;;;;1.10;1.10;;;14.00;99.90;17.60;101369.00;;;;5024495;28;20714;-66
2023/10/17 15:56:28;;;;;;;0.70;0.37;;;13.90;99.90;16.70;101395.00;;;;5010441;28;20281;-66
2023/10/17 15:59:38;;;;;;;0.20;0.20;;;13.80;99.90;17.20;101381.00;;;;5028465;28;20180;-65
2023/10/17 16:02:24;;;;;;;0.37;0.37;;;13.90;99.90;17.60;101370.00;;;;5030678;28;20183;-66
2023/10/17 16:05:31;;;;;;;0.53;0.53;;;13.70;99.90;16.90;101384.00;;;;5045725;28;20190;-65
2023/10/17 16:08:40;;;;;;;0.23;0.23;;;13.80;99.90;17.50;101391.00;;;;5052784;28;20204;-65
2023/10/17 16:11:42;;;;;;;1.73;1.70;;;13.70;99.90;17.30;101389.00;;;;4941393;28;20215;-66
2023/10/17 16:15:00;;;;;;;0.40;0.40;;;13.80;99.90;17.30;101388.00;;;;4956393;28;20195;-66
2023/10/17 16:17:34;;;;;;;0.20;0.20;;;13.70;99.90;16.90;101401.00;;;;4936352;28;20731;-66
2023/10/17 16:20:41;;;;;;;0.20;0.20;;;13.60;99.90;17.60;101352.00;;;;4941734;28;20720;-66
2023/10/17 16:23:32;;;;;;;0.63;0.63;;;13.70;99.90;17.30;101378.00;;;;4911290;29;20236;-66
2023/10/17 16:26:00;;;;;;;0.20;0.20;;;13.60;99.90;17.30;101373.00;;;;4920362;29;20334;-66
2023/10/17 16:28:28;;;;;;;0.20;0.20;;;13.60;99.90;16.90;101376.00;;;;4950077;29;20256;-66
2023/10/17 16:31:15;;;;;;;0.70;0.70;;;13.50;99.90;17.00;101388.00;;;;4925468;29;20242;-66
2023/10/17 16:34:02;;;;;;;0.27;0.27;;;13.40;99.90;17.10;101383.00;;;;4913734;29;20253;-66
2023/10/17 16:36:46;;;;;;;0.20;0.20;;;13.40;99.90;17.20;101390.00;;;;4989322;28;20199;-66
2023/10/17 16:39:17;;;;;;;0.10;0.10;;;13.50;99.90;17.10;101388.00;;;;4996213;28;20195;-66
2023/10/17 16:41:50;;;;;;;0.30;0.30;;;13.40;99.90;16.60;101396.00;;;;4974845;28;20699;-66
2023/10/17 16:44:31;;;;;;;0.37;0.37;;;13.20;99.90;15.90;101412.00;;;;4998088;28;20201;-66
2023/10/17 16:47:26;;;;;;;0.20;0.20;;;13.00;99.90;16.40;101398.00;;;;4987945;28;20245;-65
2023/10/17 16:50:13;;;;;;;0.50;0.50;;;13.00;99.90;16.10;101415.00;;;;4994690;28;20212;-65
2023/10/17 16:53:06;;;;;;;0.30;0.30;;;12.80;99.90;16.60;101412.00;;;;4995381;28;20219;-65
2023/10/17 16:55:48;;;;;;;0.27;0.27;;;13.00;99.90;16.70;101400.00;;;;5031732;28;20641;-65
2023/10/17 16:58:38;;;;;;;0.20;0.20;;;13.00;99.90;17.10;101398.00;;;;5054087;28;20178;-65
2023/10/17 17:01:21;;;;;;;0.20;0.20;;;13.10;99.90;16.90;101403.00;;;;5033134;28;20208;-65
2023/10/17 17:04:21;;;;;;;0.20;0.20;;;13.10;99.90;16.70;101413.00;;;;5029912;28;20215;-65
2023/10/17 17:07:54;;;;;;;0.80;0.80;;;13.00;99.90;16.80;101404.00;;;;5021612;28;20185;-65
2023/10/17 17:10:45;;;;;;;0.33;0.33;;;13.00;99.90;16.80;101389.00;;;;5020985;28;20638;-65
2023/10/17 17:13:36;;;;;;;0.20;0.20;;;13.00;99.90;16.50;101380.00;;;;5053669;28;20216;-65
2023/10/17 17:16:28;;;;;;;0.80;0.80;;;12.80;99.90;15.90;101419.00;;;;5036358;28;20281;-66
2023/10/17 17:19:21;;;;;;;0.47;0.40;;;12.60;99.90;15.90;101417.00;;;;5035078;28;20340;-66
2023/10/17 17:22:05;;;;;;;0.20;0.20;;;12.50;99.90;16.00;101403.00;;;;5020199;28;20722;-66
2023/10/17 17:24:51;;;;;;;0.20;0.20;;;12.50;99.90;16.50;101399.00;;;;5031562;28;20247;-65
2023/10/17 17:27:34;;;;;;;0.57;0.57;;;12.60;99.90;15.90;101374.00;;;;5036170;28;20206;-66
2023/10/17 17:30:27;;;;;;;0.33;0.33;;;12.60;99.90;16.00;101399.00;;;;5032768;28;20261;-66
2023/10/17 17:33:14;;;;;;;0.20;0.20;;;12.50;99.90;16.20;101383.00;;;;5029801;28;20218;-66
2023/10/17 17:36:03;;;;;;;0.67;0.67;;;12.50;99.90;15.80;101396.00;;;;5051836;28;20284;-66
2023/10/17 17:39:00;;;;;;;0.43;0.43;;;12.50;99.90;16.20;101394.00;;;;5019136;28;20686;-66
2023/10/17 17:41:32;;;;;;;0.30;0.30;;;12.60;99.90;15.10;101395.00;;;;5044719;28;20192;-65
2023/10/17 17:45:04;;;;;;;0.43;0.43;;;12.40;99.90;15.70;101380.00;;;;5018789;28;20204;-65
2023/10/17 17:47:58;;;;;;;0.60;0.60;;;12.20;99.90;15.60;101375.00;;;;5053568;28;20190;-65
2023/10/17 17:50:42;;;;;;;0.20;0.20;;;12.30;99.90;15.40;101340.00;;;;5038954;28;20199;-65
2023/10/17 17:54:07;;;;;;;1.07;0.33;;;12.30;99.90;15.10;101361.00;;;;5026372;28;20208;-65
2023/10/17 17:56:45;;;;;;;1.27;1.17;;;12.10;99.90;15.00;101307.00;;;;4917722;29;20212;-65
2023/10/17 17:59:29;;;;;;;0.80;0.80;;;12.10;99.90;15.00;101282.00;;;;5033292;28;20229;-65
2023/10/17 18:02:19;;;;;;;2.13;0.43;;;12.00;99.90;15.30;101302.00;;;;5022461;28;20259;-65
2023/10/17 18:05:01;;;;;;;1.80;0.50;;;12.00;99.90;15.20;101293.00;;;;5034178;28;20182;-65
2023/10/17 18:07:50;;;;;;;0.20;0.20;;;12.00;99.90;14.80;101285.00;;;;5052727;28;20645;-65
2023/10/17 18:10:41;;;;;;;0.30;0.30;;;12.00;99.90;14.90;101287.00;;;;5032580;28;20265;-65
2023/10/17 18:13:06;;;;;;;1.10;0.77;;;12.10;99.90;15.00;101261.00;;;;5051370;28;20206;-65
2023/10/17 18:15:47;;;;;;;1.07;0.70;;;11.80;99.90;14.90;101257.00;;;;5035117;28;20185;-65
2023/10/17 18:18:25;;;;;;;1.17;1.07;;;11.90;99.90;15.10;101252.00;;;;5052270;28;20182;-66
2023/10/17 18:21:24;;;;;;;0.73;0.73;;;11.90;99.90;14.70;101242.00;;;;5028544;28;20188;-65
2023/10/17 18:24:13;;;;;;;0.20;0.20;;;11.80;99.90;14.90;101253.00;;;;4947801;29;20805;-66
2023/10/17 18:26:51;;;;;;;0.80;0.80;;;11.80;99.90;14.50;101237.00;;;;4895084;29;20214;-65
2023/10/17 18:29:28;;;;;;;1.73;1.70;;;11.70;99.90;14.60;101225.00;;;;5032892;28;20206;-65
2023/10/17 18:32:18;;;;;;;0.30;0.30;;;11.70;99.90;14.50;101223.00;;;;5034224;28;20209;-66
2023/10/17 18:35:23;;;;;;;0.43;0.43;;;11.70;99.90;14.80;101214.00;;;;5019730;28;20187;-66
2023/10/17 18:38:04;;;;;;;1.67;1.57;;;11.70;99.90;14.90;101220.00;;;;5043529;28;20197;-66
2023/10/17 18:40:49;;;;;;;0.70;0.70;;;11.80;99.90;15.10;101217.00;;;;5052205;28;20194;-65
2023/10/17 18:43:46;;;;;;;0.87;0.70;;;11.80;99.90;14.00;101198.00;;;;5028961;28;20178;-65
2023/10/17 18:46:28;;;;;;;0.40;0.40;;;11.60;99.90;14.70;101195.00;;;;5051397;28;20656;-66
2023/10/17 18:48:54;;;;;;;0.60;0.60;;;11.70;99.90;14.80;101194.00;;;;5032630;28;20232;-66
2023/10/17 18:51:49;;;;;;;1.07;0.60;;;11.60;99.90;14.70;101185.00;;;;5029885;28;20578;-66
2023/10/17 18:54:27;;;;;;;0.80;0.80;;;11.60;99.90;14.70;101185.00;;;;5035480;28;20220;-66
2023/10/17 18:57:46;;;;;;;0.70;0.70;;;11.60;99.90;14.30;101184.00;;;;5037235;28;20186;-65
2023/10/17 19:01:17;;;;;;;0.77;0.77;;;11.60;99.90;14.90;101157.00;;;;4939214;28;20207;-66
2023/10/17 19:04:21;;;;;;;0.20;0.20;;;11.60;99.90;14.70;101165.00;;;;5050758;28;20181;-65
2023/10/17 19:07:31;;;;;;;0.67;0.67;;;11.60;99.90;14.00;101131.00;;;;4959401;28;20200;-66
2023/10/17 19:10:14;;;;;;;0.80;0.80;;;11.50;99.90;14.20;101161.00;;;;4949013;28;20291;-66
2023/10/17 19:12:45;;;;;;;0.53;0.53;;;11.40;99.90;14.80;101159.00;;;;4973959;28;20219;-66
2023/10/17 19:15:53;;;;;;;2.03;0.70;;;11.50;99.90;14.60;101142.00;;;;4951231;28;20215;-66
2023/10/17 19:18:27;;;;;;;0.40;0.40;;;11.50;99.90;14.30;101123.00;;;;4959662;28;20198;-66
2023/10/17 19:20:59;;;;;;;0.40;0.40;;;11.30;99.90;14.70;101154.00;;;;4951487;28;20669;-66
2023/10/17 19:23:54;;;;;;;2.50;2.30;;;11.40;99.90;14.10;101150.00;;;;4958757;28;20215;-66
2023/10/17 19:26:32;;;;;;;0.40;0.40;;;11.20;99.90;14.50;101147.00;;;;4954090;28;20685;-66
2023/10/17 19:29:16;;;;;;;1.23;0.97;;;11.20;99.90;14.00;101143.00;;;;4945163;29;20205;-66
2023/10/17 19:32:20;;;;;;;1.13;0.93;;;11.10;99.90;14.30;101136.00;;;;4954792;29;20211;-66
2023/10/17 19:35:04;;;;;;;1.17;0.87;;;11.10;99.90;14.10;101121.00;;;;4896938;29;20198;-66
2023/10/17 19:37:31;;;;;;;3.77;1.27;;;11.10;99.90;13.80;101117.00;;;;4954644;28;20666;-66
2023/10/17 19:40:20;;;;;;;7.03;0.80;;;11.00;99.90;14.20;101134.00;;;;4974940;28;20574;-66
2023/10/17 19:45:48;;;;;;;1.43;1.37;;;11.00;99.90;13.90;101112.00;;;;4971436;28;20197;-66
2023/10/17 19:48:23;;;;;;;1.47;1.37;;;11.00;99.90;13.90;101112.00;;;;5039027;28;20201;-66
2023/10/17 19:51:01;;;;;;;0.60;0.60;;;11.00;99.90;13.70;101114.00;;;;5036364;28;20204;-67
2023/10/17 19:54:05;;;;;;;3.43;1.90;;;10.90;99.90;13.30;101105.00;;;;5022686;28;20213;-67
2023/10/17 19:56:57;;;;;;;1.33;1.33;;;10.80;99.90;13.50;101101.00;;;;5039333;28;20193;-67
2023/10/17 19:59:59;;;;;;;16.33;1.63;;;10.80;99.90;14.00;101108.00;;;;5051010;28;20267;-67
2023/10/17 20:02:40;;;;;;;2.03;1.53;;;10.80;99.90;13.60;101082.00;;;;4927935;29;20570;-67
2023/10/17 20:05:46;;;;;;;2.87;2.07;;;10.80;99.90;13.60;101105.00;;;;5017585;28;20197;-67
2023/10/17 20:08:24;;;;;;;0.90;0.90;;;10.90;99.90;13.90;101080.00;;;;4954998;28;20598;-65
2023/10/17 20:11:08;;;;;;;2.83;2.53;;;11.00;99.90;13.60;101105.00;;;;5043695;28;20194;-65
2023/10/17 20:13:43;;;;;;;0.57;0.57;;;10.90;99.90;14.30;101105.00;;;;5033771;28;20212;-67
2023/10/17 20:16:41;;;;;;;1.50;1.50;;;11.00;99.90;14.00;101100.00;;;;5019239;28;20222;-68
2023/10/17 20:19:19;;;;;;;0.90;0.90;;;11.00;99.90;13.90;101059.00;;;;5020306;28;20232;-66